createdAt,value
2022-11-07T00:02:18.713Z,20.77
2022-11-07T00:04:47.523Z,19.50
2022-11-07T00:07:14.917Z,19.48
2022-11-07T00:09:42.366Z,20.30
2022-11-07T00:12:09.760Z,20.50
2022-11-07T00:14:37.184Z,19.77
2022-11-07T00:17:04.591Z,20.42
2022-11-07T00:19:32.169Z,19.58
2022-11-07T00:22:00.882Z,19.80
2022-11-07T00:24:28.323Z,19.27
2022-11-07T00:26:55.929Z,19.00
2022-11-07T00:29:23.363Z,19.27
2022-11-07T00:31:50.868Z,19.23
2022-11-07T00:34:18.277Z,20.38
2022-11-07T00:36:45.664Z,19.55
2022-11-07T00:39:14.380Z,19.92
2022-11-07T00:41:41.789Z,19.55
2022-11-07T00:44:09.181Z,21.55
2022-11-07T00:46:36.641Z,20.52
2022-11-07T00:49:04.063Z,19.13
2022-11-07T00:51:32.063Z,20.83
2022-11-07T00:53:59.491Z,19.35
2022-11-07T00:56:28.215Z,20.75
2022-11-07T00:58:56.339Z,20.10
2022-11-07T01:01:25.795Z,19.30
2022-11-07T01:04:11.317Z,20.42
2022-11-07T01:06:40.095Z,19.08
2022-11-07T01:09:08.868Z,19.63
2022-11-07T01:11:39.044Z,20.10
2022-11-07T01:14:07.384Z,18.60
2022-11-07T01:16:35.446Z,18.52
2022-11-07T01:19:03.186Z,18.88
2022-11-07T01:21:30.605Z,19.20
2022-11-07T01:23:58.295Z,19.38
2022-11-07T01:26:25.689Z,18.25
2022-11-07T01:28:54.405Z,18.42
2022-11-07T01:31:21.952Z,19.35
2022-11-07T01:33:49.363Z,18.15
2022-11-07T01:36:18.344Z,17.85
2022-11-07T01:38:52.187Z,18.27
2022-11-07T01:43:56.871Z,17.60
2022-11-07T01:48:56.161Z,18.42
2022-11-07T01:51:24.434Z,17.42
2022-11-07T01:53:52.910Z,17.88
2022-11-07T01:56:24.868Z,17.10
2022-11-07T01:58:53.272Z,18.23
2022-11-07T02:01:22.059Z,17.85
2022-11-07T02:03:50.700Z,16.42
2022-11-07T02:06:22.127Z,17.90
2022-11-07T02:08:50.062Z,16.85
2022-11-07T02:11:18.419Z,16.60
2022-11-07T02:13:45.912Z,16.88
2022-11-07T02:16:13.411Z,15.98
2022-11-07T02:18:43.424Z,16.67
2022-11-07T02:21:17.698Z,16.67
2022-11-07T02:23:49.781Z,16.38
2022-11-07T02:26:18.939Z,16.45
2022-11-07T02:28:47.802Z,17.13
2022-11-07T02:31:15.192Z,17.27
2022-11-07T02:33:42.773Z,16.73
2022-11-07T02:36:15.370Z,16.83
2022-11-07T02:38:42.904Z,16.70
2022-11-07T02:41:13.379Z,16.50
2022-11-07T02:43:43.991Z,16.80
2022-11-07T02:46:13.196Z,16.52
2022-11-07T02:48:43.431Z,16.52
2022-11-07T02:51:11.029Z,17.08
2022-11-07T02:53:38.420Z,16.10
2022-11-07T02:56:06.701Z,17.13
2022-11-07T02:58:34.223Z,16.73
2022-11-07T03:01:06.874Z,16.60
2022-11-07T03:03:35.143Z,16.70
2022-11-07T03:06:02.799Z,17.08
2022-11-07T03:08:30.210Z,16.85
2022-11-07T03:10:57.741Z,16.17
2022-11-07T03:13:25.161Z,16.65
2022-11-07T03:15:53.823Z,15.60
2022-11-07T03:18:22.657Z,17.38
2022-11-07T03:20:51.265Z,16.92
2022-11-07T03:23:18.664Z,16.15
2022-11-07T03:25:46.068Z,16.75
2022-11-07T03:28:13.501Z,16.23
2022-11-07T03:30:41.119Z,15.25
2022-11-07T03:33:08.855Z,15.40
2022-11-07T03:35:37.586Z,15.55
2022-11-07T03:38:05.101Z,14.80
2022-11-07T03:40:32.510Z,14.18
2022-11-07T03:42:59.903Z,13.77
2022-11-07T03:45:27.376Z,13.07
2022-11-07T03:47:54.792Z,13.40
2022-11-07T03:50:22.779Z,13.15
2022-11-07T03:52:51.505Z,12.82
2022-11-07T03:55:19.032Z,12.32
2022-11-07T03:57:46.578Z,12.32
2022-11-07T04:00:15.297Z,11.50
2022-11-07T04:02:44.111Z,11.45
2022-11-07T04:05:12.184Z,12.30
2022-11-07T04:07:39.607Z,11.30
2022-11-07T04:10:08.631Z,11.45
2022-11-07T04:12:53.395Z,11.48
2022-11-07T04:15:38.160Z,11.00
2022-11-07T04:18:05.643Z,11.20
2022-11-07T04:20:33.044Z,11.95
2022-11-07T04:23:00.469Z,11.35
2022-11-07T04:25:47.038Z,11.40
2022-11-07T04:28:16.202Z,11.88
2022-11-07T04:30:43.572Z,11.02
2022-11-07T04:33:11.004Z,11.05
2022-11-07T04:35:38.405Z,10.55
2022-11-07T04:38:05.869Z,11.10
2022-11-07T04:40:34.617Z,11.32
2022-11-07T04:43:03.364Z,11.07
2022-11-07T04:45:30.773Z,10.35
2022-11-07T04:47:58.160Z,11.38
2022-11-07T04:50:25.564Z,10.80
2022-11-07T04:52:53.014Z,11.27
2022-11-07T04:55:22.577Z,11.32
2022-11-07T04:57:51.347Z,10.95
2022-11-07T05:00:20.352Z,11.05
2022-11-07T05:02:49.635Z,9.88
2022-11-07T05:05:17.640Z,10.05
2022-11-07T05:07:45.589Z,10.30
2022-11-07T05:10:18.094Z,10.23
2022-11-07T05:12:45.824Z,10.18
2022-11-07T05:15:14.775Z,11.45
2022-11-07T05:17:42.238Z,10.60
2022-11-07T05:20:18.899Z,10.57
2022-11-07T05:23:03.833Z,9.98
2022-11-07T05:25:31.220Z,10.70
2022-11-07T05:27:58.610Z,10.30
2022-11-07T05:30:27.345Z,10.07
2022-11-07T05:32:54.741Z,9.45
2022-11-07T05:35:22.141Z,9.60
2022-11-07T05:37:49.567Z,9.45
2022-11-07T05:40:17.090Z,9.60
2022-11-07T05:42:44.498Z,9.50
2022-11-07T05:45:12.080Z,9.57
2022-11-07T05:47:40.829Z,9.43
2022-11-07T05:50:09.208Z,9.43
2022-11-07T05:52:36.635Z,9.55
2022-11-07T05:55:04.271Z,9.02
2022-11-07T05:57:31.800Z,9.13
2022-11-07T05:59:59.269Z,9.07
2022-11-07T06:02:26.844Z,9.20
2022-11-07T06:04:56.816Z,9.38
2022-11-07T06:07:24.254Z,9.25
2022-11-07T06:09:51.654Z,9.23
2022-11-07T06:12:19.040Z,8.82
2022-11-07T06:14:46.428Z,8.65
2022-11-07T06:17:14.058Z,8.48
2022-11-07T06:19:41.441Z,8.80
2022-11-07T06:22:10.234Z,8.80
2022-11-07T06:24:37.637Z,9.57
2022-11-07T06:27:05.242Z,8.10
2022-11-07T06:29:32.679Z,8.07
2022-11-07T06:32:00.232Z,7.88
2022-11-07T06:34:27.752Z,7.60
2022-11-07T06:37:02.578Z,8.30
2022-11-07T06:39:32.060Z,8.98
2022-11-07T06:41:59.454Z,8.20
2022-11-07T06:44:26.968Z,7.72
2022-11-07T06:46:54.369Z,8.13
2022-11-07T06:49:21.775Z,7.95
2022-11-07T06:51:49.277Z,7.50
2022-11-07T06:54:16.876Z,7.63
2022-11-07T06:56:45.600Z,7.50
2022-11-07T06:59:13.007Z,6.32
2022-11-07T07:01:40.567Z,6.18
2022-11-07T07:04:10.314Z,6.30
2022-11-07T07:06:38.813Z,6.05
2022-11-07T07:09:06.905Z,5.88
2022-11-07T07:11:36.534Z,6.63
2022-11-07T07:14:10.261Z,6.10
2022-11-07T07:16:38.949Z,5.93
2022-11-07T07:19:06.504Z,6.60
2022-11-07T07:21:34.922Z,5.88
2022-11-07T07:24:02.349Z,5.78
2022-11-07T07:26:29.813Z,5.63
2022-11-07T07:28:57.197Z,5.60
2022-11-07T07:31:30.695Z,5.47
2022-11-07T07:33:58.334Z,5.07
2022-11-07T07:36:26.022Z,5.07
2022-11-07T07:38:53.712Z,5.50
2022-11-07T07:41:21.242Z,4.90
2022-11-07T07:43:48.702Z,4.60
2022-11-07T07:46:20.536Z,4.82
2022-11-07T07:48:49.367Z,4.65
2022-11-07T07:51:16.784Z,4.50
2022-11-07T07:53:44.195Z,4.53
2022-11-07T07:56:11.814Z,4.80
2022-11-07T07:58:39.202Z,5.43
2022-11-07T08:01:10.412Z,4.07
2022-11-07T08:03:59.689Z,4.57
2022-11-07T08:06:27.654Z,4.53
2022-11-07T08:08:55.048Z,4.85
2022-11-07T08:11:23.463Z,4.38
2022-11-07T08:13:50.865Z,4.00
2022-11-07T08:16:18.350Z,4.13
2022-11-07T08:18:45.740Z,4.00
2022-11-07T08:21:13.297Z,4.20
2022-11-07T08:23:42.042Z,3.88
2022-11-07T08:26:09.471Z,3.50
2022-11-07T08:28:37.089Z,3.78
2022-11-07T08:31:06.563Z,3.22
2022-11-07T08:33:34.179Z,3.40
2022-11-07T08:36:03.481Z,3.30
2022-11-07T08:38:32.558Z,3.08
2022-11-07T08:41:01.388Z,3.00
2022-11-07T08:43:29.012Z,2.90
2022-11-07T08:45:59.714Z,3.03
2022-11-07T08:48:27.232Z,3.20
2022-11-07T08:50:55.612Z,3.13
2022-11-07T08:53:24.028Z,2.88
2022-11-07T08:55:51.709Z,3.38
2022-11-07T08:58:22.668Z,2.75
2022-11-07T09:00:52.324Z,3.00
2022-11-07T09:06:07.745Z,2.88
2022-11-07T09:08:35.134Z,3.05
2022-11-07T09:11:03.873Z,2.67
2022-11-07T09:13:33.309Z,3.10
2022-11-07T09:16:01.666Z,2.67
2022-11-07T09:18:29.073Z,2.72
2022-11-07T09:20:56.508Z,3.00
2022-11-07T09:23:23.914Z,2.80
2022-11-07T09:25:51.370Z,3.25
2022-11-07T09:28:18.788Z,3.10
2022-11-07T09:30:47.508Z,2.83
2022-11-07T09:33:15.235Z,2.47
2022-11-07T09:35:42.830Z,2.70
2022-11-07T09:38:10.227Z,2.85
2022-11-07T09:40:44.755Z,2.90
2022-11-07T09:43:26.701Z,2.28
2022-11-07T09:46:03.278Z,2.60
2022-11-07T09:48:36.626Z,2.67
2022-11-07T09:51:04.844Z,2.60
2022-11-07T09:53:35.207Z,2.40
2022-11-07T09:56:05.336Z,2.42
2022-11-07T09:58:36.733Z,2.42
2022-11-07T10:01:06.862Z,2.10
2022-11-07T10:03:36.019Z,2.33
2022-11-07T10:06:07.828Z,2.83
2022-11-07T10:08:38.859Z,2.78
2022-11-07T10:11:10.610Z,2.67
2022-11-07T10:13:57.940Z,2.40
2022-11-07T10:16:33.785Z,2.40
2022-11-07T10:19:10.428Z,2.20
2022-11-07T10:21:44.616Z,2.17
2022-11-07T10:24:24.191Z,2.08
2022-11-07T10:26:51.625Z,2.42
2022-11-07T10:29:20.637Z,2.65
2022-11-07T10:31:56.513Z,2.40
2022-11-07T10:34:30.233Z,2.83
2022-11-07T10:37:04.501Z,2.05
2022-11-07T10:39:33.048Z,2.10
2022-11-07T10:42:03.229Z,3.80
2022-11-07T10:44:31.074Z,2.47
2022-11-07T10:46:59.858Z,2.92
2022-11-07T10:49:29.038Z,2.20
2022-11-07T10:52:06.356Z,2.42
2022-11-07T10:54:33.920Z,1.90
2022-11-07T10:57:03.708Z,2.10
2022-11-07T10:59:36.219Z,2.20
2022-11-07T11:02:20.418Z,2.03
2022-11-07T11:04:51.143Z,2.30
2022-11-07T11:07:21.803Z,2.05
2022-11-07T11:09:54.019Z,2.13
2022-11-07T11:12:25.112Z,2.10
2022-11-07T11:15:06.989Z,2.10
2022-11-07T11:17:35.732Z,1.63
2022-11-07T11:20:03.526Z,1.80
2022-11-07T11:22:31.002Z,2.33
2022-11-07T11:25:04.825Z,1.70
2022-11-07T11:27:34.652Z,2.00
2022-11-07T11:30:07.165Z,1.80
2022-11-07T11:32:40.077Z,1.88
2022-11-07T11:35:16.585Z,2.33
2022-11-07T11:37:48.342Z,1.70
2022-11-07T11:40:22.458Z,1.60
2022-11-07T11:42:54.134Z,1.58
2022-11-07T11:45:27.693Z,1.80
2022-11-07T11:48:01.289Z,2.05
2022-11-07T11:52:59.578Z,1.85
2022-11-07T11:55:31.264Z,1.50
2022-11-07T11:58:02.562Z,1.90
2022-11-07T12:00:33.104Z,1.42
2022-11-07T12:03:18.384Z,1.60
2022-11-07T12:05:59.461Z,1.70
2022-11-07T12:08:38.843Z,1.90
2022-11-07T12:11:13.088Z,1.80
2022-11-07T12:13:47.558Z,1.75
2022-11-07T12:16:21.167Z,2.03
2022-11-07T12:21:26.787Z,2.10
2022-11-07T12:24:03.883Z,2.60
2022-11-07T12:26:34.747Z,2.00
2022-11-07T12:29:09.338Z,2.20
2022-11-07T12:31:46.077Z,2.35
2022-11-07T12:34:24.019Z,2.10
2022-11-07T12:37:03.982Z,1.80
2022-11-07T12:39:42.601Z,2.10
2022-11-07T12:42:19.576Z,1.75
2022-11-07T12:44:57.585Z,2.30
2022-11-07T12:47:38.114Z,2.50
2022-11-07T12:50:14.883Z,2.10
2022-11-07T12:52:50.878Z,2.25
2022-11-07T12:55:21.955Z,2.25
2022-11-07T12:57:50.481Z,2.05
2022-11-07T13:00:24.558Z,2.10
2022-11-07T13:03:25.531Z,1.98
2022-11-07T13:06:06.234Z,2.28
2022-11-07T13:08:36.389Z,2.10
2022-11-07T13:11:06.667Z,2.30
2022-11-07T13:13:46.091Z,2.40
2022-11-07T13:16:24.286Z,2.00
2022-11-07T13:18:51.875Z,2.35
2022-11-07T13:21:26.158Z,2.35
2022-11-07T13:23:53.649Z,2.58
2022-11-07T13:26:54.118Z,2.40
2022-11-07T13:29:25.078Z,2.72
2022-11-07T13:32:04.958Z,2.38
2022-11-07T13:34:40.638Z,2.40
2022-11-07T13:37:16.244Z,2.38
2022-11-07T13:39:44.861Z,2.20
2022-11-07T13:42:15.839Z,2.42
2022-11-07T13:44:43.874Z,2.20
2022-11-07T13:47:16.190Z,2.53
2022-11-07T13:49:45.849Z,2.60
2022-11-07T13:52:18.543Z,2.72
2022-11-07T13:54:53.689Z,2.65
2022-11-07T13:57:24.833Z,2.97
2022-11-07T13:59:55.446Z,2.83
2022-11-07T14:02:24.412Z,2.80
2022-11-07T14:05:15.310Z,2.25
2022-11-07T14:07:43.815Z,2.58
2022-11-07T14:10:21.825Z,2.17
2022-11-07T14:12:49.368Z,2.58
2022-11-07T14:15:17.809Z,2.30
2022-11-07T14:17:46.550Z,2.42
2022-11-07T14:20:16.454Z,2.33
2022-11-07T14:22:53.375Z,2.78
2022-11-07T14:25:26.717Z,2.53
2022-11-07T14:27:54.287Z,2.70
2022-11-07T14:30:24.218Z,2.53
2022-11-07T14:32:53.438Z,3.05
2022-11-07T14:35:22.926Z,2.83
2022-11-07T14:37:51.851Z,2.70
2022-11-07T14:40:20.177Z,2.60
2022-11-07T14:42:48.195Z,2.75
2022-11-07T14:45:39.137Z,2.65
2022-11-07T14:48:06.622Z,3.10
2022-11-07T14:50:34.345Z,2.40
2022-11-07T14:53:06.280Z,2.83
2022-11-07T14:55:35.183Z,2.80
2022-11-07T14:58:03.469Z,2.63
2022-11-07T15:00:31.784Z,2.67
2022-11-07T15:03:00.108Z,2.40
2022-11-07T15:05:30.533Z,2.85
2022-11-07T15:07:59.829Z,3.00
2022-11-07T15:10:33.663Z,2.95
2022-11-07T15:15:31.863Z,2.53
2022-11-07T15:18:00.948Z,2.60
2022-11-07T15:20:37.022Z,2.85
2022-11-07T15:23:06.263Z,2.83
2022-11-07T15:25:37.792Z,2.65
2022-11-07T15:28:21.254Z,2.50
2022-11-07T15:30:49.558Z,2.85
2022-11-07T15:33:18.030Z,2.20
2022-11-07T15:35:46.645Z,2.70
2022-11-07T15:38:19.228Z,2.40
2022-11-07T15:40:48.723Z,2.73
2022-11-07T15:43:16.276Z,2.80
2022-11-07T15:45:44.321Z,2.53
2022-11-07T15:48:16.031Z,2.40
2022-11-07T15:50:44.765Z,2.70
2022-11-07T15:53:17.145Z,2.80
2022-11-07T15:55:44.642Z,2.40
2022-11-07T15:58:16.136Z,2.75
2022-11-07T16:00:43.908Z,2.60
2022-11-07T16:03:15.082Z,2.70
2022-11-07T16:05:43.317Z,2.65
2022-11-07T16:08:14.778Z,3.00
2022-11-07T16:10:45.037Z,3.10
2022-11-07T16:13:13.849Z,2.70
2022-11-07T16:15:43.654Z,2.75
2022-11-07T16:18:16.301Z,3.15
2022-11-07T16:20:44.067Z,2.50
2022-11-07T16:23:11.612Z,2.78
2022-11-07T16:25:40.950Z,2.85
2022-11-07T16:28:21.091Z,2.20
2022-11-07T16:30:48.501Z,2.38
2022-11-07T16:33:15.904Z,3.05
2022-11-07T16:35:43.382Z,4.25
2022-11-07T16:38:14.324Z,3.10
2022-11-07T16:40:42.441Z,3.10
2022-11-07T16:43:10.197Z,3.10
2022-11-07T16:45:41.628Z,2.42
2022-11-07T16:48:17.991Z,2.83
2022-11-07T16:50:45.655Z,3.50
2022-11-07T16:53:13.508Z,3.28
2022-11-07T16:55:41.474Z,2.70
2022-11-07T16:58:23.162Z,2.40
2022-11-07T17:00:52.376Z,2.50
2022-11-07T17:03:20.109Z,2.60
2022-11-07T17:05:47.993Z,3.17
2022-11-07T17:08:19.858Z,2.78
2022-11-07T17:10:47.405Z,3.13
2022-11-07T17:13:14.849Z,2.90
2022-11-07T17:15:42.838Z,2.78
2022-11-07T17:18:19.612Z,2.60
2022-11-07T17:20:51.922Z,2.63
2022-11-07T17:23:22.874Z,2.80
2022-11-07T17:25:54.293Z,3.42
2022-11-07T17:28:22.365Z,3.47
2022-11-07T17:30:49.839Z,3.03
2022-11-07T17:33:18.528Z,3.58
2022-11-07T17:35:45.990Z,3.22
2022-11-07T17:38:16.930Z,2.40
2022-11-07T17:40:44.695Z,3.08
2022-11-07T17:43:12.101Z,2.70
2022-11-07T17:45:39.537Z,2.38
2022-11-07T17:48:07.213Z,2.58
2022-11-07T17:50:35.965Z,2.80
2022-11-07T17:53:03.374Z,2.42
2022-11-07T17:55:30.790Z,2.67
2022-11-07T17:57:58.244Z,3.45
2022-11-07T18:00:27.108Z,2.95
2022-11-07T18:02:54.608Z,3.00
2022-11-07T18:05:24.096Z,4.40
2022-11-07T18:07:55.198Z,3.22
2022-11-07T18:10:22.730Z,3.20
2022-11-07T18:12:50.176Z,5.03
2022-11-07T18:15:17.616Z,3.60
2022-11-07T18:17:45.085Z,2.78
2022-11-07T18:20:13.286Z,2.88
2022-11-07T18:22:40.704Z,2.95
2022-11-07T18:25:09.997Z,2.83
2022-11-07T18:27:37.471Z,3.25
2022-11-07T18:30:06.021Z,2.97
2022-11-07T18:32:36.741Z,2.75
2022-11-07T18:35:05.856Z,2.50
2022-11-07T18:37:33.259Z,2.80
2022-11-07T18:40:00.658Z,2.90
2022-11-07T18:42:30.116Z,3.80
2022-11-07T18:44:57.693Z,4.97
2022-11-07T18:47:25.712Z,10.95
2022-11-07T18:49:57.093Z,10.13
2022-11-07T18:52:24.840Z,9.70
2022-11-07T18:54:52.537Z,8.23
2022-11-07T18:57:19.936Z,7.72
2022-11-07T18:59:48.763Z,5.00
2022-11-07T19:02:17.303Z,3.78
2022-11-07T19:04:44.959Z,2.92
2022-11-07T19:07:12.385Z,2.50
2022-11-07T19:09:39.807Z,2.70
2022-11-07T19:12:07.697Z,2.75
2022-11-07T19:14:35.250Z,2.63
2022-11-07T19:17:04.800Z,2.90
2022-11-07T19:19:33.592Z,2.70
2022-11-07T19:22:01.915Z,2.40
2022-11-07T19:24:29.436Z,2.38
2022-11-07T19:26:56.820Z,2.60
2022-11-07T19:29:24.653Z,2.40
2022-11-07T19:31:52.101Z,2.65
2022-11-07T19:34:21.087Z,2.10
2022-11-07T19:36:48.495Z,2.40
2022-11-07T19:39:15.967Z,2.50
2022-11-07T19:41:43.389Z,3.08
2022-11-07T19:44:11.028Z,2.33
2022-11-07T19:46:38.447Z,2.45
2022-11-07T19:49:05.887Z,2.65
2022-11-07T19:51:36.180Z,2.50
2022-11-07T19:54:04.395Z,2.55
2022-11-07T19:56:32.663Z,2.80
2022-11-07T19:59:01.259Z,2.00
2022-11-07T20:01:31.344Z,2.60
2022-11-07T20:03:59.123Z,2.95
2022-11-07T20:06:30.330Z,2.78
2022-11-07T20:08:59.263Z,2.97
2022-11-07T20:11:27.173Z,2.90
2022-11-07T20:14:00.139Z,2.70
2022-11-07T20:16:30.320Z,3.10
2022-11-07T20:18:57.739Z,2.28
2022-11-07T20:21:25.869Z,2.30
2022-11-07T20:23:54.453Z,2.58
2022-11-07T20:26:24.602Z,2.95
2022-11-07T20:28:52.704Z,2.50
2022-11-07T20:31:21.638Z,2.88
2022-11-07T20:33:49.274Z,2.70
2022-11-07T20:36:17.286Z,2.50
2022-11-07T20:38:45.466Z,2.60
2022-11-07T20:41:13.699Z,2.58
2022-11-07T20:43:43.640Z,2.80
2022-11-07T20:46:12.729Z,3.25
2022-11-07T20:48:40.158Z,2.70
2022-11-07T20:51:08.890Z,2.60
2022-11-07T20:53:37.776Z,2.42
2022-11-07T20:56:06.575Z,2.65
2022-11-07T20:58:34.168Z,3.08
2022-11-07T21:01:03.671Z,2.92
2022-11-07T21:03:31.221Z,2.30
2022-11-07T21:05:58.632Z,2.42
2022-11-07T21:08:26.101Z,2.47
2022-11-07T21:10:55.412Z,2.60
2022-11-07T21:13:22.886Z,3.20
2022-11-07T21:15:51.174Z,4.47
2022-11-07T21:18:20.062Z,2.90
2022-11-07T21:20:47.474Z,3.08
2022-11-07T21:23:15.612Z,3.33
2022-11-07T21:25:45.010Z,2.72
2022-11-07T21:28:16.882Z,2.45
2022-11-07T21:30:45.118Z,2.50
2022-11-07T21:33:13.095Z,2.47
2022-11-07T21:35:42.662Z,2.60
2022-11-07T21:38:10.172Z,2.33
2022-11-07T21:40:38.419Z,2.40
2022-11-07T21:43:05.841Z,2.33
2022-11-07T21:45:33.350Z,2.55
2022-11-07T21:48:00.874Z,2.40
2022-11-07T21:50:44.049Z,2.72
2022-11-07T21:53:13.816Z,2.42
2022-11-07T21:55:41.414Z,2.60
2022-11-07T21:58:08.842Z,2.58
2022-11-07T22:00:37.153Z,3.00
2022-11-07T22:03:05.127Z,2.40
2022-11-07T22:05:32.512Z,2.97
2022-11-07T22:08:00.144Z,2.90
2022-11-07T22:10:28.871Z,2.78
2022-11-07T22:12:56.276Z,3.03
2022-11-07T22:15:23.759Z,2.70
2022-11-07T22:17:51.204Z,2.83
2022-11-07T22:20:18.790Z,2.70
2022-11-07T22:22:46.186Z,2.92
2022-11-07T22:25:13.589Z,3.20
2022-11-07T22:27:42.330Z,2.58
2022-11-07T22:30:10.901Z,2.40
2022-11-07T22:32:38.311Z,2.63
2022-11-07T22:35:09.353Z,2.40
2022-11-07T22:37:37.014Z,2.58
2022-11-07T22:40:04.734Z,2.70
2022-11-07T22:42:32.152Z,2.50
2022-11-07T22:45:00.873Z,2.60
2022-11-07T22:47:28.317Z,2.92
2022-11-07T22:49:55.721Z,2.65
2022-11-07T22:52:23.166Z,3.00
2022-11-07T22:54:50.567Z,2.90
2022-11-07T22:57:18.247Z,2.72
2022-11-07T22:59:45.675Z,2.50
2022-11-07T23:02:14.558Z,2.50
2022-11-07T23:04:42.250Z,3.15
2022-11-07T23:07:09.655Z,2.90
2022-11-07T23:09:37.071Z,2.88
2022-11-07T23:12:04.660Z,2.70
2022-11-07T23:14:32.067Z,3.38
2022-11-07T23:16:59.488Z,2.88
2022-11-07T23:19:28.259Z,3.10
2022-11-07T23:21:56.906Z,2.83
2022-11-07T23:24:24.889Z,2.75
2022-11-07T23:26:52.277Z,2.75
2022-11-07T23:29:20.994Z,2.80
2022-11-07T23:31:50.143Z,3.00
2022-11-07T23:34:18.120Z,3.30
2022-11-07T23:36:46.998Z,2.88
2022-11-07T23:39:16.318Z,2.60
2022-11-07T23:41:44.013Z,2.85
2022-11-07T23:44:11.908Z,2.67
2022-11-07T23:46:57.249Z,2.45
2022-11-07T23:49:50.790Z,2.97
2022-11-07T23:52:19.569Z,1.85
2022-11-07T23:55:04.639Z,3.08
2022-11-07T23:57:34.930Z,2.60
